• Join FlightAware (Why Join?)
  • Login
  • US Flag 
12:28PM EDT


 

Airport Tracker/Info


-or-


 

Live Flight TrackerFlight Track Log ✈ EGF2745 ✈ 16-Jul-2013 ✈ KCVG - KORD

Flight Track Log - Related Links

Times and Time Zones

All times are in EDT time to prevent confusion due to time zone crossing. See the EGF2745 flight status page for this flight to view local times or setup timezone preferences in your user account.

Time Position Orientation Groundspeed Altitude Reporting Facility
EDT Latitude Longitude Course Direction KTS MPH feet Rate Location/Type
08:39AM 39.0500 -84.6667 351° North 159 183 1,300  Level Cincinnati TRACON
08:41AM 39.0167 -84.7500 243° Southwest 234 269 4,400 2,100 Climbing Cincinnati TRACON
08:41AM 39.0333 -84.8333 284° West 266 306 6,000 1,200 Climbing Cincinnati TRACON
08:42AM 38.9210 -84.7905 308° West  Level FlightAware Approximate
08:43AM 38.9841 -84.8725 345° North  Level FlightAware Approximate
08:43AM 39.0853 -84.9236 307° West 267 307 7,000  Level Indianapolis Center
08:44AM 39.0751 -84.8950 351° North  Level FlightAware Approximate
08:44AM 39.1614 -84.9456 347° North 280 322 9,700  Level Indianapolis Center
08:45AM 39.1689 -84.9138 351° North  Level FlightAware Approximate
08:45AM 39.2433 -84.9603 352° North 296 341 11,800  Level Indianapolis Center
08:46AM 39.3456 -85.0039 342° North 325 374 14,300 2,040 Climbing Indianapolis Center
08:47AM 39.4300 -85.0533 336° Northwest 332 382 16,000 1,500 Climbing Indianapolis Center
08:48AM 39.5181 -85.1047 336° Northwest 344 396 17,500 1,200 Climbing Indianapolis Center
08:49AM 39.6103 -85.1581 336° Northwest 360 414 18,600 1,020 Climbing Indianapolis Center
08:50AM 39.7039 -85.2122 336° Northwest 367 422 19,700 960 Climbing Indianapolis Center
08:51AM 39.7992 -85.2697 335° Northwest 375 432 20,700 1,020 Climbing Indianapolis Center
08:52AM 39.9219 -85.3397 336° Northwest 400 460 21,900 600 Climbing Indianapolis Center
08:53AM 40.0286 -85.4047 335° Northwest 418 481 22,000  Climbing Indianapolis Center
08:54AM 40.1425 -85.4717 336° Northwest 443 510 22,000  Level Indianapolis Center
08:55AM 40.2331 -85.5847 316° Northwest 458 527 22,000  Level Indianapolis Center
08:56AM 40.3172 -85.7033 313° West 450 518 22,000  Level Indianapolis Center
08:57AM 40.4186 -85.8436 314° West 447 514 22,000  Level Indianapolis Center
08:58AM 40.5031 -85.9617 313° West 447 514 22,000  Level Indianapolis Center
08:59AM 40.5889 -86.0817 313° West 452 520 22,000  Level Indianapolis Center
09:00AM 40.6736 -86.2014 313° West 450 518 22,000  Level Indianapolis Center
09:01AM 40.7586 -86.3219 313° West 451 519 22,000 -720 Level Indianapolis Center
09:02AM 40.8419 -86.4406 313° West 445 512 20,600 -1,740 Descending Indianapolis Center
09:03AM 40.9392 -86.5800 313° West 431 496 18,500 -1,740 Descending Indianapolis Center
09:04AM 41.0142 -86.6847 314° West 400 460 17,100 -1,500 Descending Indianapolis Center
09:05AM 41.0856 -86.7922 311° West 391 450 15,400 -1,560 Descending Indianapolis Center
09:06AM 41.1583 -86.8964 313° West 389 448 13,900 -1,500 Descending Indianapolis Center
09:07AM 41.2278 -86.9967 313° West 380 437 12,400 -1,320 Descending Indianapolis Center
09:08AM 41.3108 -87.1175 312° West 374 430 11,200 -600 Descending Indianapolis Center
09:10AM 41.4158 -87.2544 316° Northwest 368 423 11,000 -180 Descending Chicago Center